Time;durP1;ratioP1;P1;durP2;ratioP2;P2;SDS_P1;SDS_P2;PMS_P1;PMS_P2;Temp;Humidity;BMP_temperature;BMP_pressure;BME280_temperature;BME280_humidity;BME280_pressure;Samples;Min_cycle;Max_cycle;Signal;HPM_P1;HPM_P2
2023/06/12 00:00:54;;;;;;;2.40;1.10;;;23.30;35.50;;;;;;2589461;52;20966;-74
2023/06/12 00:03:24;;;;;;;2.30;1.30;;;23.30;35.20;;;;;;2570659;53;21183;-74
2023/06/12 00:05:52;;;;;;;2.67;1.33;;;23.20;35.30;;;;;;2566441;53;21015;-74
2023/06/12 00:08:18;;;;;;;2.40;1.12;;;23.20;35.30;;;;;;2588237;53;20969;-76
2023/06/12 00:10:45;;;;;;;2.10;1.08;;;23.10;35.30;;;;;;2588707;52;21430;-74
2023/06/12 00:13:12;;;;;;;2.50;1.20;;;23.10;35.40;;;;;;2344026;54;21030;-74
2023/06/12 00:15:38;;;;;;;2.95;1.42;;;23.00;35.40;;;;;;2588722;52;20910;-75
2023/06/12 00:18:05;;;;;;;2.47;1.40;;;23.00;35.50;;;;;;2589930;52;20934;-74
2023/06/12 00:20:31;;;;;;;2.53;1.27;;;22.90;35.60;;;;;;2589067;52;21014;-74
2023/06/12 00:22:58;;;;;;;2.85;1.60;;;22.90;35.70;;;;;;2588748;52;20950;-75
2023/06/12 00:25:25;;;;;;;2.72;1.45;;;22.80;35.80;;;;;;2343168;54;20922;-74
2023/06/12 00:27:52;;;;;;;3.10;1.50;;;22.80;35.90;;;;;;2589310;52;21534;-75
2023/06/12 00:30:19;;;;;;;2.15;1.12;;;22.70;35.90;;;;;;2590137;52;20943;-74
2023/06/12 00:32:50;;;;;;;2.50;1.30;;;22.70;36.00;;;;;;2587075;52;21862;-72
2023/06/12 00:35:19;;;;;;;2.15;1.08;;;22.60;36.10;;;;;;2343672;54;20946;-74
2023/06/12 00:37:46;;;;;;;3.03;1.35;;;22.50;36.10;;;;;;2585053;52;20944;-75
2023/06/12 00:40:13;;;;;;;2.47;1.40;;;22.50;36.10;;;;;;2588510;53;20986;-75
2023/06/12 00:42:45;;;;;;;2.00;1.10;;;22.40;36.20;;;;;;2587897;52;20918;-73
2023/06/12 00:45:16;;;;;;;2.85;1.52;;;22.40;36.40;;;;;;2589702;53;20972;-73
2023/06/12 00:47:42;;;;;;;2.60;1.30;;;22.30;36.30;;;;;;2588189;53;20970;-74
2023/06/12 00:50:12;;;;;;;2.60;1.27;;;22.30;36.40;;;;;;2589132;52;21439;-74
2023/06/12 00:52:44;;;;;;;2.40;1.20;;;22.20;36.40;;;;;;2585184;53;20937;-73
2023/06/12 00:55:11;;;;;;;2.17;1.12;;;22.20;36.70;;;;;;2590325;53;21434;-73
2023/06/12 00:57:38;;;;;;;2.97;1.37;;;22.10;36.50;;;;;;2588966;53;20938;-75
2023/06/12 01:00:06;;;;;;;2.67;1.37;;;22.00;36.60;;;;;;2589589;53;21050;-74
2023/06/12 01:02:39;;;;;;;3.15;1.70;;;22.00;36.80;;;;;;2589761;53;20953;-73
2023/06/12 01:05:12;;;;;;;3.10;1.48;;;21.90;36.70;;;;;;2344439;54;21660;-74
2023/06/12 01:09:33;;;;;;;2.55;1.23;;;21.90;36.90;;;;;;2586922;52;21482;-73
2023/06/12 01:12:00;;;;;;;3.15;1.35;;;21.80;37.10;;;;;;2589747;52;21794;-74
2023/06/12 01:14:27;;;;;;;2.53;1.30;;;21.70;36.80;;;;;;2590096;53;20958;-74
2023/06/12 01:16:58;;;;;;;2.50;1.20;;;21.70;37.00;;;;;;2589524;53;20922;-77
2023/06/12 01:19:24;;;;;;;2.40;1.20;;;21.60;37.10;;;;;;2589951;52;20970;-73
2023/06/12 01:21:52;;;;;;;2.42;1.27;;;21.60;37.30;;;;;;2583349;52;21895;-74
2023/06/12 01:24:53;;;;;;;2.70;1.50;;;21.50;37.30;;;;;;2564016;53;20918;-74
2023/06/12 01:30:26;;;;;;;2.62;1.40;;;21.50;37.90;;;;;;2586121;53;20983;-74
2023/06/12 01:32:55;;;;;;;2.28;1.20;;;21.40;37.60;;;;;;2577081;53;20995;-74
2023/06/12 01:35:23;;;;;;;4.18;1.40;;;21.30;37.30;;;;;;2578130;53;21256;-73
2023/06/12 01:38:12;;;;;;;2.80;1.60;;;21.30;37.50;;;;;;2575454;53;21046;-75
2023/06/12 01:40:39;;;;;;;2.33;1.30;;;21.20;37.90;;;;;;2525036;54;20993;-73
2023/06/12 01:43:05;;;;;;;3.05;1.60;;;21.10;37.50;;;;;;2569554;53;20947;-74
2023/06/12 01:45:32;;;;;;;3.62;1.58;;;21.10;37.80;;;;;;2331475;55;21009;-75
2023/06/12 01:47:58;;;;;;;2.50;1.40;;;21.00;37.90;;;;;;2575093;53;21269;-74
2023/06/12 01:50:27;;;;;;;3.22;1.60;;;21.00;38.00;;;;;;2578128;53;21025;-74
2023/06/12 01:52:53;;;;;;;2.65;1.50;;;20.90;38.70;;;;;;2576580;53;20934;-74
2023/06/12 01:55:21;;;;;;;2.85;1.60;;;20.90;38.10;;;;;;2561853;53;20949;-73
2023/06/12 01:57:51;;;;;;;2.58;1.40;;;20.90;38.40;;;;;;2564042;53;20934;-74
2023/06/12 02:00:18;;;;;;;4.45;1.90;;;20.80;38.60;;;;;;2579481;53;20934;-74
2023/06/12 02:02:45;;;;;;;3.62;1.50;;;20.80;38.50;;;;;;2578102;53;21699;-74
2023/06/12 02:05:11;;;;;;;2.90;1.67;;;20.70;38.50;;;;;;2579191;53;21024;-73
2023/06/12 02:07:38;;;;;;;2.87;1.77;;;20.70;38.60;;;;;;2576279;53;20930;-73
2023/06/12 02:10:07;;;;;;;2.75;1.40;;;20.60;38.60;;;;;;2579150;53;21046;-74
2023/06/12 02:12:36;;;;;;;2.45;1.40;;;20.60;38.80;;;;;;2578241;53;20950;-74
2023/06/12 02:15:03;;;;;;;2.53;1.40;;;20.60;39.10;;;;;;2578815;53;21021;-75
2023/06/12 02:17:31;;;;;;;3.05;1.48;;;20.50;38.80;;;;;;2576934;53;20963;-73
2023/06/12 02:20:02;;;;;;;2.75;1.50;;;20.40;39.40;;;;;;2577350;53;21029;-73
2023/06/12 02:22:28;;;;;;;2.90;1.50;;;20.40;38.80;;;;;;2577571;53;20966;-73
2023/06/12 02:24:56;;;;;;;3.17;1.48;;;20.40;38.90;;;;;;2577399;53;21446;-74
2023/06/12 02:27:23;;;;;;;2.50;1.45;;;20.40;39.00;;;;;;2575616;53;20994;-73
2023/06/12 02:29:50;;;;;;;2.80;1.40;;;20.30;39.70;;;;;;2546618;53;20951;-74
2023/06/12 02:32:17;;;;;;;3.67;1.65;;;20.30;39.20;;;;;;2578258;53;20943;-74
2023/06/12 02:34:43;;;;;;;2.80;1.48;;;20.30;39.20;;;;;;2577219;53;20927;-74
2023/06/12 02:37:10;;;;;;;3.05;1.45;;;20.20;39.20;;;;;;2575011;53;21103;-74
2023/06/12 02:39:37;;;;;;;3.08;1.67;;;20.20;39.30;;;;;;2577734;53;20915;-75
2023/06/12 02:42:05;;;;;;;2.80;1.73;;;20.20;39.50;;;;;;2332830;55;20930;-73
2023/06/12 02:44:31;;;;;;;5.35;1.70;;;20.10;39.60;;;;;;2550508;53;20920;-73
2023/06/12 02:46:59;;;;;;;3.03;1.60;;;20.10;39.60;;;;;;2577971;53;20994;-74
2023/06/12 02:49:26;;;;;;;3.10;1.83;;;20.00;39.60;;;;;;2551028;53;20951;-73
2023/06/12 02:51:52;;;;;;;3.17;1.77;;;20.10;39.80;;;;;;2570597;53;21011;-73
2023/06/12 02:54:21;;;;;;;3.28;1.83;;;20.00;40.00;;;;;;2576856;53;20951;-72
2023/06/12 02:56:47;;;;;;;3.42;2.05;;;20.00;40.20;;;;;;2575982;53;21446;-73
2023/06/12 02:59:18;;;;;;;2.80;1.58;;;19.90;40.10;;;;;;2577308;53;21031;-72
2023/06/12 03:01:44;;;;;;;4.30;1.83;;;19.90;40.30;;;;;;2561941;53;20979;-73
2023/06/12 03:04:18;;;;;;;2.90;1.67;;;19.90;40.20;;;;;;2560672;53;20935;-73
2023/06/12 03:06:45;;;;;;;3.12;1.55;;;19.90;40.40;;;;;;2538281;54;21043;-73
2023/06/12 03:09:15;;;;;;;4.90;1.62;;;19.90;40.30;;;;;;2537587;54;20915;-73
2023/06/12 03:11:43;;;;;;;3.62;1.80;;;19.80;40.30;;;;;;2537151;53;20913;-73
2023/06/12 03:14:09;;;;;;;2.60;1.50;;;19.80;40.30;;;;;;2550605;53;20929;-73
2023/06/12 03:16:36;;;;;;;3.17;1.92;;;19.80;40.30;;;;;;2549725;53;20947;-73
2023/06/12 03:19:02;;;;;;;2.70;1.40;;;19.80;40.40;;;;;;2537252;53;21560;-73
2023/06/12 03:21:29;;;;;;;2.90;1.65;;;19.70;40.30;;;;;;2523889;53;21011;-72
2023/06/12 03:23:56;;;;;;;2.85;1.55;;;19.70;40.40;;;;;;2557590;53;21527;-73
2023/06/12 03:26:23;;;;;;;3.42;1.77;;;19.70;40.50;;;;;;2551004;53;20933;-74
2023/06/12 03:28:51;;;;;;;3.45;1.98;;;19.70;40.50;;;;;;2549975;53;20929;-72
2023/06/12 03:31:18;;;;;;;3.15;1.73;;;19.60;40.50;;;;;;2550601;53;20942;-73
2023/06/12 03:33:48;;;;;;;4.12;1.67;;;19.60;40.60;;;;;;2574251;53;21004;-73
2023/06/12 03:36:14;;;;;;;3.20;1.60;;;19.60;40.70;;;;;;2574153;53;21002;-72
2023/06/12 03:38:44;;;;;;;2.95;1.60;;;19.60;40.80;;;;;;2537855;53;21049;-71
2023/06/12 03:41:11;;;;;;;3.10;1.80;;;19.50;40.70;;;;;;2567389;53;21003;-72
2023/06/12 03:43:37;;;;;;;3.10;1.87;;;19.50;40.80;;;;;;2575097;53;21869;-73
2023/06/12 03:46:05;;;;;;;2.80;1.60;;;19.50;40.90;;;;;;2576396;53;21101;-73
2023/06/12 03:48:31;;;;;;;3.22;1.85;;;19.50;40.90;;;;;;2577717;53;21812;-72
2023/06/12 03:50:58;;;;;;;3.45;1.90;;;19.40;40.90;;;;;;2548290;53;21022;-74
2023/06/12 03:53:24;;;;;;;3.65;1.80;;;19.40;41.00;;;;;;2570237;53;20990;-73
2023/06/12 03:55:51;;;;;;;6.25;2.28;;;19.40;41.10;;;;;;2548881;54;22562;-73
2023/06/12 03:58:17;;;;;;;3.60;2.20;;;19.30;41.30;;;;;;2313972;54;21003;-73
2023/06/12 04:00:47;;;;;;;3.87;1.92;;;19.30;41.40;;;;;;2540661;54;21005;-72
2023/06/12 04:03:17;;;;;;;3.72;1.92;;;19.30;41.30;;;;;;2549954;54;20925;-73
2023/06/12 04:05:49;;;;;;;3.00;1.77;;;19.30;41.40;;;;;;2548021;54;21497;-73
2023/06/12 04:08:16;;;;;;;3.72;2.12;;;19.30;41.60;;;;;;2548299;54;21265;-73
2023/06/12 04:10:43;;;;;;;4.32;1.87;;;19.20;41.50;;;;;;2553300;53;20973;-74
2023/06/12 04:13:10;;;;;;;3.62;1.95;;;19.10;41.50;;;;;;2582280;53;21744;-73
2023/06/12 04:15:39;;;;;;;3.47;1.98;;;19.20;41.80;;;;;;2582079;53;20939;-72
2023/06/12 04:18:09;;;;;;;3.45;1.87;;;19.20;41.90;;;;;;2567415;53;20893;-73
2023/06/12 04:20:38;;;;;;;5.78;2.40;;;19.10;42.00;;;;;;2549216;53;21762;-72
2023/06/12 04:23:11;;;;;;;3.42;1.95;;;19.10;42.00;;;;;;2587688;53;20921;-74
2023/06/12 04:25:38;;;;;;;3.67;2.22;;;19.10;42.20;;;;;;2588691;53;20921;-73
2023/06/12 04:28:08;;;;;;;3.92;2.30;;;19.10;42.10;;;;;;2588890;53;21426;-73
2023/06/12 04:30:37;;;;;;;3.75;2.30;;;19.10;42.30;;;;;;2588539;53;21667;-73
2023/06/12 04:33:03;;;;;;;3.35;1.85;;;19.10;42.40;;;;;;2587649;53;20948;-73
2023/06/12 04:35:33;;;;;;;3.72;1.95;;;19.10;42.40;;;;;;2317050;54;22186;-73
2023/06/12 04:37:59;;;;;;;3.12;1.92;;;19.10;42.60;;;;;;2587745;53;20932;-73
2023/06/12 04:40:26;;;;;;;3.90;2.50;;;19.10;42.70;;;;;;2589548;53;20977;-74
2023/06/12 04:42:56;;;;;;;3.95;2.58;;;19.10;42.70;;;;;;2587661;53;20929;-75
2023/06/12 04:45:23;;;;;;;6.05;2.87;;;19.10;42.80;;;;;;2588473;53;21373;-73
2023/06/12 04:47:50;;;;;;;4.47;2.85;;;19.10;43.20;;;;;;2587961;53;20968;-74
2023/06/12 04:50:16;;;;;;;6.15;3.05;;;19.10;43.40;;;;;;2588328;53;21369;-73
2023/06/12 04:52:42;;;;;;;5.65;3.28;;;19.20;43.70;;;;;;2583640;53;21016;-74
2023/06/12 04:55:11;;;;;;;4.97;3.22;;;19.00;43.80;;;;;;2588838;53;20925;-74
2023/06/12 04:57:39;;;;;;;5.80;3.22;;;19.20;44.20;;;;;;2588120;53;21312;-72
2023/06/12 05:00:06;;;;;;;4.93;3.33;;;19.30;44.90;;;;;;2588538;53;20924;-74
2023/06/12 05:02:33;;;;;;;5.37;2.90;;;19.30;44.50;;;;;;2588758;53;20972;-72
2023/06/12 05:05:02;;;;;;;4.22;3.10;;;19.30;44.40;;;;;;2587792;53;21008;-74
2023/06/12 05:07:36;;;;;;;4.80;3.00;;;19.40;44.60;;;;;;2343062;55;20965;-75
2023/06/12 05:10:03;;;;;;;5.47;3.10;;;19.30;44.50;;;;;;2549432;54;20910;-75
2023/06/12 05:12:32;;;;;;;4.53;2.78;;;19.50;44.80;;;;;;2310814;55;20941;-74
2023/06/12 05:15:05;;;;;;;4.35;2.80;;;19.60;44.80;;;;;;2548934;54;20913;-74
2023/06/12 05:17:32;;;;;;;4.85;3.20;;;19.60;44.70;;;;;;2310151;54;21015;-74
2023/06/12 05:19:59;;;;;;;7.53;3.45;;;19.60;44.80;;;;;;2549904;53;20995;-75
2023/06/12 05:22:25;;;;;;;7.47;2.75;;;19.60;44.80;;;;;;2569567;53;21018;-74
2023/06/12 05:24:52;;;;;;;4.72;2.75;;;19.70;44.90;;;;;;2332684;54;21002;-74
2023/06/12 05:27:18;;;;;;;6.87;2.80;;;19.70;44.90;;;;;;2578162;53;21513;-75
2023/06/12 05:29:47;;;;;;;6.00;3.20;;;19.80;45.10;;;;;;2577288;53;21861;-74
2023/06/12 05:32:14;;;;;;;5.25;2.75;;;19.80;45.20;;;;;;2333716;55;20980;-74
2023/06/12 05:34:46;;;;;;;5.28;2.80;;;19.90;45.20;;;;;;2544023;53;20928;-74
2023/06/12 05:37:12;;;;;;;4.45;2.87;;;19.90;45.60;;;;;;2548984;53;21310;-75
2023/06/12 05:39:39;;;;;;;4.90;3.05;;;20.00;45.50;;;;;;2570119;53;20990;-75
2023/06/12 05:42:07;;;;;;;4.95;3.12;;;20.00;45.60;;;;;;2332344;55;21030;-74
2023/06/12 05:44:35;;;;;;;5.03;3.20;;;20.10;45.90;;;;;;2332830;55;20930;-73
2023/06/12 05:47:01;;;;;;;5.62;3.35;;;20.20;46.00;;;;;;2333045;55;21003;-74
2023/06/12 05:49:28;;;;;;;4.70;3.20;;;20.20;45.90;;;;;;2333384;54;20975;-74
2023/06/12 05:51:55;;;;;;;5.82;3.20;;;20.30;45.90;;;;;;2568816;53;22055;-73
2023/06/12 05:54:21;;;;;;;4.95;3.22;;;20.30;45.90;;;;;;2571362;53;20966;-73
2023/06/12 05:56:48;;;;;;;5.60;3.35;;;20.40;46.00;;;;;;2331826;54;20947;-74
2023/06/12 05:59:18;;;;;;;5.53;3.80;;;20.50;46.10;;;;;;2576998;53;20994;-74
2023/06/12 06:01:45;;;;;;;6.43;3.00;;;20.50;46.20;;;;;;2331838;54;20930;-73
2023/06/12 06:04:11;;;;;;;6.00;3.00;;;20.60;46.10;;;;;;2577272;53;20971;-73
2023/06/12 06:06:38;;;;;;;4.53;2.70;;;20.60;46.20;;;;;;2574742;53;20947;-75
2023/06/12 06:09:06;;;;;;;6.10;2.70;;;20.70;46.30;;;;;;2543829;53;21022;-73
2023/06/12 06:11:35;;;;;;;5.78;3.12;;;20.80;46.90;;;;;;2574938;53;20954;-73
2023/06/12 06:14:03;;;;;;;4.65;2.95;;;20.80;46.50;;;;;;2544378;53;21446;-73
2023/06/12 06:16:29;;;;;;;5.65;2.92;;;20.90;46.50;;;;;;2577861;53;20942;-72
2023/06/12 06:19:02;;;;;;;5.35;3.10;;;20.90;46.60;;;;;;2577809;53;20990;-75
2023/06/12 06:21:30;;;;;;;4.80;2.83;;;21.00;46.70;;;;;;2574478;53;20995;-73
2023/06/12 06:23:56;;;;;;;5.07;3.15;;;21.10;46.80;;;;;;2307384;54;21990;-73
2023/06/12 06:26:23;;;;;;;6.28;3.40;;;21.20;46.90;;;;;;2322137;54;20923;-77
2023/06/12 06:28:50;;;;;;;5.90;2.80;;;21.30;47.10;;;;;;2561814;53;21034;-74
2023/06/12 06:31:27;;;;;;;4.15;2.58;;;21.30;47.00;;;;;;2544154;53;21482;-74
2023/06/12 06:33:54;;;;;;;5.05;3.35;;;21.50;47.10;;;;;;2549304;53;21312;-72
2023/06/12 06:36:20;;;;;;;5.07;3.28;;;21.50;47.20;;;;;;2327401;54;20995;-72
2023/06/12 06:38:50;;;;;;;6.93;3.20;;;21.60;47.40;;;;;;2333034;55;20943;-73
2023/06/12 06:41:16;;;;;;;4.62;2.83;;;21.70;47.50;;;;;;2333649;55;20974;-73
2023/06/12 06:43:45;;;;;;;3.35;2.33;;;21.80;47.20;;;;;;2577387;53;20958;-73
2023/06/12 06:46:12;;;;;;;4.70;2.87;;;21.90;47.30;;;;;;2317989;54;20927;-74
2023/06/12 06:48:40;;;;;;;4.85;2.50;;;22.00;47.20;;;;;;2324957;54;21606;-73
2023/06/12 06:51:08;;;;;;;3.67;2.40;;;22.10;47.20;;;;;;2575736;53;21817;-73
2023/06/12 06:53:35;;;;;;;5.90;2.40;;;22.20;47.30;;;;;;2307772;54;20960;-71
2023/06/12 06:56:01;;;;;;;3.65;2.53;;;22.30;47.20;;;;;;2330104;54;20910;-74
2023/06/12 06:58:28;;;;;;;3.85;2.35;;;22.30;47.20;;;;;;2577242;53;20955;-74
2023/06/12 07:00:54;;;;;;;5.12;3.03;;;22.50;47.30;;;;;;2569949;53;21019;-71
2023/06/12 07:03:21;;;;;;;4.85;2.85;;;22.50;47.20;;;;;;2313462;54;21010;-74
2023/06/12 07:05:47;;;;;;;5.62;2.50;;;22.70;47.30;;;;;;2577205;53;20970;-74
2023/06/12 07:08:13;;;;;;;5.40;2.65;;;22.70;47.20;;;;;;2573767;53;20987;-73
2023/06/12 07:10:40;;;;;;;3.75;2.42;;;22.80;47.10;;;;;;2333177;55;20997;-74
2023/06/12 07:13:08;;;;;;;4.62;2.65;;;23.00;47.30;;;;;;2333032;54;21467;-73
2023/06/12 07:15:35;;;;;;;5.03;2.85;;;23.10;47.30;;;;;;2334106;55;20950;-74
2023/06/12 07:18:01;;;;;;;4.30;2.83;;;23.20;47.30;;;;;;2577064;53;21050;-74
2023/06/12 07:20:27;;;;;;;4.62;2.80;;;23.30;47.30;;;;;;2333616;55;20943;-73
2023/06/12 07:22:54;;;;;;;4.20;2.50;;;23.40;47.20;;;;;;2575620;53;21798;-72
2023/06/12 07:25:22;;;;;;;4.87;3.00;;;23.50;47.20;;;;;;2549002;53;20913;-72
2023/06/12 07:27:48;;;;;;;4.10;2.78;;;23.60;47.20;;;;;;2548223;53;20979;-74
2023/06/12 07:30:16;;;;;;;4.10;2.75;;;23.80;47.20;;;;;;2539817;53;22371;-73
2023/06/12 07:32:42;;;;;;;4.68;2.95;;;23.90;47.10;;;;;;2549299;53;20995;-74
2023/06/12 07:35:09;;;;;;;4.12;3.00;;;24.00;46.90;;;;;;2549375;53;21515;-74
2023/06/12 07:37:35;;;;;;;4.12;2.97;;;24.20;47.00;;;;;;2546986;53;20948;-71
2023/06/12 07:40:05;;;;;;;4.22;3.12;;;24.20;46.80;;;;;;2548286;53;20908;-73
2023/06/12 07:42:33;;;;;;;4.45;2.97;;;24.40;46.70;;;;;;2548924;53;20971;-75
2023/06/12 07:45:00;;;;;;;4.62;2.87;;;24.40;46.50;;;;;;2309723;55;20999;-74
2023/06/12 07:47:29;;;;;;;5.50;3.35;;;24.60;46.50;;;;;;2549409;53;20927;-73
2023/06/12 07:49:55;;;;;;;3.95;2.70;;;24.70;46.50;;;;;;2310030;54;22032;-74
2023/06/12 07:52:24;;;;;;;5.00;3.00;;;24.80;46.40;;;;;;2517349;54;20993;-73
2023/06/12 07:54:51;;;;;;;5.10;3.00;;;25.00;46.30;;;;;;2310404;55;21483;-75
2023/06/12 07:57:17;;;;;;;4.07;2.85;;;25.00;46.00;;;;;;2549161;53;21750;-74
2023/06/12 07:59:44;;;;;;;4.55;2.95;;;25.20;45.90;;;;;;2310060;55;21214;-74
2023/06/12 08:02:13;;;;;;;4.75;2.95;;;25.20;45.60;;;;;;2549046;53;21012;-74
2023/06/12 08:04:44;;;;;;;5.68;2.60;;;25.40;45.60;;;;;;2309677;55;21057;-73
2023/06/12 08:07:11;;;;;;;6.20;3.55;;;25.50;45.60;;;;;;2317746;54;21007;-73
2023/06/12 08:09:41;;;;;;;3.87;2.58;;;25.50;45.50;;;;;;2341969;54;20949;-74
2023/06/12 08:12:10;;;;;;;3.87;2.60;;;25.70;45.50;;;;;;2588259;53;21365;-74
2023/06/12 08:14:38;;;;;;;4.10;2.83;;;25.70;45.30;;;;;;2553630;53;21492;-74
2023/06/12 08:17:04;;;;;;;4.05;2.78;;;25.80;45.20;;;;;;2587989;53;21387;-73
2023/06/12 08:19:32;;;;;;;4.43;2.80;;;25.90;45.10;;;;;;2340438;55;21800;-76
2023/06/12 08:21:59;;;;;;;4.43;2.92;;;26.00;45.00;;;;;;2342045;55;21036;-75
2023/06/12 08:24:29;;;;;;;4.35;2.90;;;26.10;44.80;;;;;;2342847;55;21044;-73
2023/06/12 08:26:57;;;;;;;3.78;2.45;;;26.10;44.70;;;;;;2341479;54;20973;-74
2023/06/12 08:29:23;;;;;;;4.05;2.78;;;26.30;44.60;;;;;;2341809;55;20972;-74
2023/06/12 08:31:49;;;;;;;4.20;2.72;;;26.40;44.50;;;;;;2341651;55;22053;-74
2023/06/12 08:34:16;;;;;;;3.42;2.40;;;26.50;44.40;;;;;;2342047;54;20948;-74
2023/06/12 08:36:42;;;;;;;5.10;2.60;;;26.60;44.20;;;;;;2574967;53;20968;-73
2023/06/12 08:39:10;;;;;;;5.37;2.80;;;26.70;44.10;;;;;;2325294;54;21519;-74
2023/06/12 08:41:37;;;;;;;3.95;2.62;;;26.80;44.00;;;;;;2570714;53;20955;-73
2023/06/12 08:44:04;;;;;;;4.35;2.70;;;26.80;43.70;;;;;;2573450;53;21139;-73
2023/06/12 08:46:30;;;;;;;3.10;2.20;;;26.90;43.60;;;;;;2343195;54;21809;-73
2023/06/12 08:49:00;;;;;;;4.00;2.55;;;27.00;43.40;;;;;;2588446;53;21084;-74
2023/06/12 08:51:27;;;;;;;3.53;2.50;;;27.10;43.30;;;;;;2339553;55;20940;-75
2023/06/12 08:53:54;;;;;;;3.60;2.58;;;27.20;43.20;;;;;;2589685;53;20932;-74
2023/06/12 08:56:20;;;;;;;3.53;2.40;;;27.20;43.00;;;;;;2589255;53;20965;-73
2023/06/12 08:58:46;;;;;;;3.78;2.37;;;27.30;42.90;;;;;;2343287;55;20928;-73
2023/06/12 09:01:13;;;;;;;4.35;2.80;;;27.40;42.70;;;;;;2589132;53;21012;-72
2023/06/12 09:03:42;;;;;;;3.58;2.30;;;27.50;42.50;;;;;;2342983;55;20959;-73
2023/06/12 09:06:09;;;;;;;4.43;2.80;;;27.50;42.20;;;;;;2342358;55;20933;-73
2023/06/12 09:08:38;;;;;;;3.90;2.50;;;27.60;42.10;;;;;;2316813;54;20929;-72
2023/06/12 09:11:05;;;;;;;3.75;2.40;;;27.50;42.00;;;;;;2342741;55;20937;-72
2023/06/12 09:13:43;;;;;;;3.30;2.00;;;27.70;42.10;;;;;;2343370;54;20964;-73
2023/06/12 09:16:12;;;;;;;3.22;2.17;;;27.80;41.70;;;;;;2341393;54;21855;-72
2023/06/12 09:18:54;;;;;;;5.87;2.20;;;27.90;41.70;;;;;;2588398;53;20921;-74
2023/06/12 09:21:24;;;;;;;3.00;1.70;;;28.00;41.30;;;;;;2342401;54;21629;-73
2023/06/12 09:23:55;;;;;;;3.20;2.10;;;28.00;40.90;;;;;;2557338;53;20952;-73
2023/06/12 09:26:23;;;;;;;3.22;1.98;;;28.10;40.50;;;;;;2339277;54;21016;-73
2023/06/12 09:28:53;;;;;;;2.70;1.58;;;28.20;40.80;;;;;;2588464;53;21020;-72
2023/06/12 09:31:19;;;;;;;2.97;1.83;;;28.30;40.60;;;;;;2569371;53;20956;-73
2023/06/12 09:33:46;;;;;;;2.70;1.73;;;28.30;40.10;;;;;;2330902;54;21885;-73
2023/06/12 09:36:13;;;;;;;3.55;2.00;;;28.40;40.00;;;;;;2343243;55;20905;-74
2023/06/12 09:38:39;;;;;;;3.05;1.92;;;28.50;39.80;;;;;;2561019;53;21722;-71
2023/06/12 09:41:07;;;;;;;3.00;1.60;;;28.60;39.50;;;;;;2335143;54;21012;-74
2023/06/12 09:43:36;;;;;;;2.67;1.65;;;28.70;39.40;;;;;;2310721;55;20996;-74
2023/06/12 09:46:07;;;;;;;3.50;2.00;;;28.70;39.20;;;;;;2549738;54;20997;-72
2023/06/12 09:48:40;;;;;;;2.95;2.00;;;28.80;39.20;;;;;;2549826;54;20921;-74
2023/06/12 09:51:07;;;;;;;4.40;1.75;;;28.90;38.50;;;;;;2285064;54;20989;-75
2023/06/12 09:53:38;;;;;;;3.10;1.80;;;28.90;38.70;;;;;;2310820;54;20916;-73
2023/06/12 09:56:08;;;;;;;3.33;1.92;;;29.00;38.00;;;;;;2549996;53;20922;-73
2023/06/12 09:58:38;;;;;;;3.00;1.80;;;29.00;37.80;;;;;;2550079;54;20935;-73
2023/06/12 10:01:08;;;;;;;3.37;1.90;;;29.10;37.50;;;;;;2587988;53;20961;-73
2023/06/12 10:03:37;;;;;;;3.00;1.80;;;29.20;37.40;;;;;;2589162;53;20933;-74
2023/06/12 10:06:08;;;;;;;3.47;2.10;;;29.20;37.30;;;;;;2341935;55;21095;-73
2023/06/12 10:08:36;;;;;;;2.92;1.80;;;29.20;37.20;;;;;;2318118;54;21020;-73
2023/06/12 10:11:06;;;;;;;3.12;1.65;;;29.30;37.20;;;;;;2342753;54;20944;-74
2023/06/12 10:13:32;;;;;;;2.78;1.83;;;29.30;36.90;;;;;;2342759;55;20988;-73
2023/06/12 10:15:59;;;;;;;2.95;1.77;;;29.40;37.20;;;;;;2342415;55;20928;-73
2023/06/12 10:18:26;;;;;;;2.80;1.67;;;29.40;37.00;;;;;;2341837;54;21022;-73
2023/06/12 10:20:55;;;;;;;2.95;1.95;;;29.50;36.90;;;;;;2345354;54;21743;-74
2023/06/12 10:23:24;;;;;;;2.78;1.55;;;29.60;36.80;;;;;;2342157;55;21036;-72
2023/06/12 10:25:50;;;;;;;2.92;1.70;;;29.60;36.90;;;;;;2341803;54;20952;-72
2023/06/12 10:28:17;;;;;;;2.72;1.65;;;29.70;36.50;;;;;;2580246;53;20948;-75
2023/06/12 10:31:10;;;;;;;3.47;1.90;;;29.70;36.00;;;;;;2563399;53;21473;-74
2023/06/12 10:33:37;;;;;;;3.62;1.70;;;29.80;35.70;;;;;;2586906;53;21052;-73
2023/06/12 10:36:11;;;;;;;2.55;1.40;;;29.90;36.00;;;;;;2342099;55;20940;-74
2023/06/12 10:38:51;;;;;;;2.80;1.75;;;30.00;35.70;;;;;;2558987;53;21434;-73
2023/06/12 10:41:32;;;;;;;2.78;1.70;;;30.00;35.60;;;;;;2588457;53;20957;-73
2023/06/12 10:44:20;;;;;;;2.85;1.87;;;30.00;35.40;;;;;;2588546;53;20933;-73
2023/06/12 10:46:47;;;;;;;3.05;1.60;;;30.10;35.40;;;;;;2587383;53;21287;-71
2023/06/12 10:49:14;;;;;;;3.22;1.77;;;30.20;35.30;;;;;;2588379;53;20913;-73
2023/06/12 10:51:48;;;;;;;3.20;1.67;;;30.30;34.90;;;;;;2585808;53;21012;-73
2023/06/12 10:54:15;;;;;;;3.00;1.58;;;30.30;34.30;;;;;;2585958;53;20936;-74
2023/06/12 10:57:00;;;;;;;2.58;1.50;;;30.40;34.50;;;;;;2342171;55;21008;-73
2023/06/12 10:59:37;;;;;;;4.00;1.55;;;30.40;33.50;;;;;;2587981;53;21000;-73
2023/06/12 11:02:03;;;;;;;2.90;1.80;;;30.50;33.60;;;;;;2588905;53;21013;-73
2023/06/12 11:04:37;;;;;;;3.62;1.70;;;30.50;33.70;;;;;;2345959;55;21055;-74
2023/06/12 11:07:04;;;;;;;2.90;1.62;;;30.50;32.80;;;;;;2584278;53;21003;-73
2023/06/12 11:09:40;;;;;;;2.90;1.70;;;30.60;33.40;;;;;;2338935;53;21006;-73
2023/06/12 11:12:09;;;;;;;2.80;1.60;;;30.70;32.70;;;;;;2342004;54;21567;-72
2023/06/12 11:14:35;;;;;;;2.92;1.80;;;30.70;33.40;;;;;;2339625;54;20919;-73
2023/06/12 11:17:03;;;;;;;3.12;1.70;;;30.70;33.00;;;;;;2589102;53;20953;-74
2023/06/12 11:19:30;;;;;;;2.92;1.80;;;30.70;32.70;;;;;;2588222;53;21670;-73
2023/06/12 11:21:57;;;;;;;3.12;1.83;;;30.80;32.40;;;;;;2339512;54;20945;-72
2023/06/12 11:24:25;;;;;;;4.05;1.92;;;30.80;32.20;;;;;;2319200;54;21015;-72
2023/06/12 11:26:51;;;;;;;3.65;1.85;;;30.80;31.90;;;;;;2586648;53;20924;-72
2023/06/12 11:29:22;;;;;;;3.47;1.92;;;30.80;31.70;;;;;;2587942;53;20949;-72
2023/06/12 11:31:50;;;;;;;3.13;1.77;;;30.90;31.60;;;;;;2342051;54;20965;-74
2023/06/12 11:34:16;;;;;;;3.15;2.00;;;30.90;31.60;;;;;;2340881;55;20949;-72
2023/06/12 11:36:43;;;;;;;2.95;1.92;;;31.00;31.70;;;;;;2582661;53;20949;-71
2023/06/12 11:39:18;;;;;;;3.03;2.00;;;31.00;31.80;;;;;;2341053;55;20996;-72
2023/06/12 11:41:49;;;;;;;2.72;1.90;;;31.10;31.10;;;;;;2587501;53;21008;-70
2023/06/12 11:44:16;;;;;;;5.43;2.10;;;31.10;31.30;;;;;;2342330;54;20972;-73
2023/06/12 11:46:44;;;;;;;2.92;1.60;;;31.10;31.00;;;;;;2587948;53;21030;-74
2023/06/12 11:49:12;;;;;;;3.15;1.77;;;31.10;30.70;;;;;;2588043;53;20941;-73
2023/06/12 11:51:40;;;;;;;3.00;1.77;;;31.20;30.60;;;;;;2340832;54;20969;-73
2023/06/12 11:54:14;;;;;;;3.05;1.80;;;31.20;30.70;;;;;;2554293;53;21027;-72
2023/06/12 11:56:43;;;;;;;2.70;1.80;;;31.20;30.80;;;;;;2553218;53;20991;-71
2023/06/12 11:59:13;;;;;;;;;;;31.30;30.80;;;;;;2578893;53;21359;-71
2023/06/12 12:01:41;;;;;;;4.90;1.92;;;31.30;31.00;;;;;;2588013;53;20701;-72
2023/06/12 12:04:09;;;;;;;3.42;1.55;;;31.40;30.60;;;;;;2588791;53;20950;-72
2023/06/12 12:06:48;;;;;;;3.28;1.77;;;31.40;30.80;;;;;;2583211;53;20992;-71
2023/06/12 12:09:15;;;;;;;3.10;1.83;;;31.40;30.30;;;;;;2553983;53;21848;-73
2023/06/12 12:11:44;;;;;;;3.20;1.62;;;31.50;31.00;;;;;;2577156;53;21000;-73
2023/06/12 12:14:11;;;;;;;3.28;1.75;;;31.50;31.00;;;;;;2565983;53;20991;-75
2023/06/12 12:16:43;;;;;;;2.78;1.67;;;31.50;30.60;;;;;;2341118;55;20941;-73
2023/06/12 12:19:47;;;;;;;3.15;1.50;;;31.60;30.50;;;;;;2343406;55;21837;-72
2023/06/12 12:22:13;;;;;;;2.70;1.52;;;31.70;30.50;;;;;;2561959;53;20945;-72
2023/06/12 12:24:40;;;;;;;2.70;1.60;;;31.70;30.50;;;;;;2314982;54;20921;-74
2023/06/12 12:27:12;;;;;;;3.10;1.90;;;31.70;30.50;;;;;;2563135;53;20992;-73
2023/06/12 12:29:39;;;;;;;2.67;1.67;;;31.80;30.40;;;;;;2336451;54;20980;-72
2023/06/12 12:32:16;;;;;;;2.67;1.62;;;31.80;30.40;;;;;;2588535;53;20928;-72
2023/06/12 12:34:42;;;;;;;2.92;1.70;;;31.80;30.00;;;;;;2588010;53;20945;-72
2023/06/12 12:37:13;;;;;;;2.60;1.48;;;31.80;29.70;;;;;;2340422;54;21016;-71
2023/06/12 12:39:43;;;;;;;3.05;1.80;;;31.90;29.60;;;;;;2342014;55;20936;-72
2023/06/12 12:42:10;;;;;;;2.92;1.92;;;31.90;29.80;;;;;;2588456;53;20995;-72
2023/06/12 12:44:37;;;;;;;2.85;1.50;;;31.90;29.60;;;;;;2587803;53;20976;-74
2023/06/12 12:47:03;;;;;;;3.15;1.85;;;32.00;29.60;;;;;;2587908;53;20988;-69
2023/06/12 12:49:34;;;;;;;3.72;1.70;;;32.00;29.50;;;;;;2587963;53;20897;-69
2023/06/12 12:52:04;;;;;;;3.15;1.90;;;32.00;29.60;;;;;;2329365;54;20990;-70
2023/06/12 12:54:31;;;;;;;2.80;1.60;;;32.00;29.60;;;;;;2578206;53;20981;-70
2023/06/12 12:56:58;;;;;;;2.72;1.62;;;32.10;29.80;;;;;;2587898;53;21848;-69
2023/06/12 12:59:25;;;;;;;2.78;1.77;;;32.10;29.40;;;;;;2341500;54;21485;-70